createdAt,value
2017-12-03T00:00:05.354Z,3.77
2017-12-03T00:00:45.916Z,3.74
2017-12-03T00:01:26.479Z,3.74
2017-12-03T00:02:07.054Z,3.68
2017-12-03T00:02:47.632Z,3.78
2017-12-03T00:03:28.177Z,3.68
2017-12-03T00:04:08.749Z,3.59
2017-12-03T00:04:49.308Z,3.66
2017-12-03T00:05:29.881Z,3.63
2017-12-03T00:06:10.438Z,3.59
2017-12-03T00:06:51.024Z,3.59
2017-12-03T00:07:31.595Z,3.58
2017-12-03T00:08:12.150Z,3.5
2017-12-03T00:08:52.708Z,3.5
2017-12-03T00:09:33.285Z,3.53
2017-12-03T00:10:13.843Z,3.48
2017-12-03T00:10:54.426Z,3.41
2017-12-03T00:11:34.988Z,3.44
2017-12-03T00:12:15.568Z,3.42
2017-12-03T00:12:56.134Z,3.47
2017-12-03T00:13:36.753Z,3.44
2017-12-03T00:14:17.363Z,3.41
2017-12-03T00:14:57.960Z,3.4
2017-12-03T00:15:38.535Z,3.47
2017-12-03T00:16:19.101Z,3.37
2017-12-03T00:16:59.721Z,3.37
2017-12-03T00:17:40.287Z,3.4
2017-12-03T00:18:20.855Z,3.37
2017-12-03T00:19:01.430Z,3.41
2017-12-03T00:19:42.014Z,3.37
2017-12-03T00:20:22.590Z,3.29
2017-12-03T00:21:03.197Z,3.42
2017-12-03T00:21:43.776Z,3.37
2017-12-03T00:22:24.360Z,3.36
2017-12-03T00:23:04.940Z,3.36
2017-12-03T00:23:45.500Z,3.29
2017-12-03T00:24:26.066Z,3.26
2017-12-03T00:25:06.662Z,3.28
2017-12-03T00:25:47.238Z,3.25
2017-12-03T00:26:27.819Z,3.26
2017-12-03T00:27:08.408Z,3.28
2017-12-03T00:27:48.985Z,3.25
2017-12-03T00:28:29.549Z,3.26
2017-12-03T00:29:10.119Z,3.26
2017-12-03T00:29:50.684Z,3.26
2017-12-03T00:30:31.262Z,3.18
2017-12-03T00:31:11.851Z,3.22
2017-12-03T00:31:52.405Z,3.18
2017-12-03T00:32:32.963Z,3.25
2017-12-03T00:33:13.533Z,3.26
2017-12-03T00:33:54.099Z,3.19
2017-12-03T00:34:34.705Z,3.23
2017-12-03T00:35:15.273Z,3.22
2017-12-03T00:35:55.845Z,3.22
2017-12-03T00:36:36.399Z,3.19
2017-12-03T00:37:16.971Z,3.19
2017-12-03T00:37:57.594Z,3.08
2017-12-03T00:38:38.177Z,3.11
2017-12-03T00:39:18.748Z,3.04
2017-12-03T00:39:59.307Z,3.05
2017-12-03T00:40:39.860Z,3.07
2017-12-03T00:41:20.438Z,3.08
2017-12-03T00:42:01.009Z,3.13
2017-12-03T00:42:41.580Z,2.98
2017-12-03T00:43:22.166Z,3.07
2017-12-03T00:44:02.754Z,3.03
2017-12-03T00:44:43.334Z,3.03
2017-12-03T00:45:23.907Z,3.03
2017-12-03T00:46:04.476Z,3.03
2017-12-03T00:46:45.051Z,2.93
2017-12-03T00:47:25.598Z,2.97
2017-12-03T00:48:06.165Z,3.05
2017-12-03T00:48:46.740Z,2.98
2017-12-03T00:49:27.379Z,3.01
2017-12-03T00:50:07.936Z,2.97
2017-12-03T00:50:48.515Z,2.93
2017-12-03T00:51:29.072Z,2.86
2017-12-03T00:52:09.687Z,2.87
2017-12-03T00:52:50.211Z,2.86
2017-12-03T00:53:30.775Z,2.87
2017-12-03T00:54:11.340Z,2.85
2017-12-03T00:54:51.968Z,2.87
2017-12-03T00:55:32.519Z,2.87
2017-12-03T00:56:13.117Z,2.83
2017-12-03T00:56:53.691Z,2.87
2017-12-03T00:57:34.273Z,2.83
2017-12-03T00:58:14.871Z,2.87
2017-12-03T00:58:55.475Z,2.8
2017-12-03T00:59:36.048Z,2.82
2017-12-03T01:00:16.622Z,2.83
2017-12-03T01:00:57.232Z,2.83
2017-12-03T01:01:37.815Z,2.85
2017-12-03T01:02:18.585Z,2.89
2017-12-03T01:02:59.147Z,2.87
2017-12-03T01:03:39.705Z,2.85
2017-12-03T01:04:20.258Z,2.8
2017-12-03T01:05:00.853Z,2.77
2017-12-03T01:05:41.394Z,2.89
2017-12-03T01:06:21.952Z,2.82
2017-12-03T01:07:02.532Z,2.8
2017-12-03T01:07:43.096Z,2.87
2017-12-03T01:08:23.699Z,2.87
2017-12-03T01:09:04.281Z,2.82
2017-12-03T01:09:44.852Z,2.9
2017-12-03T01:10:25.424Z,2.83
2017-12-03T01:11:05.994Z,2.92
2017-12-03T01:11:46.562Z,2.92
2017-12-03T01:12:27.128Z,2.85
2017-12-03T01:13:07.695Z,2.86
2017-12-03T01:13:48.261Z,2.87
2017-12-03T01:14:28.835Z,2.87
2017-12-03T01:15:09.402Z,2.83
2017-12-03T01:15:50.068Z,2.87
2017-12-03T01:16:30.637Z,2.89
2017-12-03T01:17:11.198Z,2.98
2017-12-03T01:17:51.809Z,3
2017-12-03T01:18:32.366Z,2.95
2017-12-03T01:19:12.924Z,3.04
2017-12-03T01:19:53.490Z,3
2017-12-03T01:20:34.057Z,3
2017-12-03T01:21:14.630Z,2.98
2017-12-03T01:21:55.187Z,3.04
2017-12-03T01:22:35.746Z,3.04
2017-12-03T01:23:16.328Z,3.04
2017-12-03T01:23:56.904Z,3.07
2017-12-03T01:24:37.477Z,3.04
2017-12-03T01:25:18.050Z,3.1
2017-12-03T01:25:58.627Z,3.08
2017-12-03T01:26:39.176Z,3.03
2017-12-03T01:27:19.734Z,3.08
2017-12-03T01:28:00.311Z,3.13
2017-12-03T01:28:40.881Z,3.07
2017-12-03T01:29:21.447Z,3.05
2017-12-03T01:30:02.031Z,2.98
2017-12-03T01:30:42.599Z,2.97
2017-12-03T01:31:23.166Z,3.05
2017-12-03T01:32:03.735Z,3.07
2017-12-03T01:32:44.311Z,2.93
2017-12-03T01:33:24.879Z,3.03
2017-12-03T01:34:05.449Z,3.04
2017-12-03T01:34:46.024Z,2.98
2017-12-03T01:35:26.591Z,3.01
2017-12-03T01:36:07.178Z,2.93
2017-12-03T01:36:47.753Z,2.98
2017-12-03T01:37:28.313Z,3.04
2017-12-03T01:38:08.873Z,2.95
2017-12-03T01:38:49.440Z,3.01
2017-12-03T01:39:30.013Z,2.97
2017-12-03T01:40:10.571Z,3.04
2017-12-03T01:40:51.122Z,2.98
2017-12-03T01:41:31.689Z,3.01
2017-12-03T01:42:12.258Z,3
2017-12-03T01:42:52.817Z,2.95
2017-12-03T01:43:33.400Z,2.97
2017-12-03T01:44:13.962Z,3
2017-12-03T01:44:54.574Z,2.98
2017-12-03T01:45:35.098Z,3
2017-12-03T01:46:15.664Z,3
2017-12-03T01:46:56.234Z,2.97
2017-12-03T01:47:36.812Z,3
2017-12-03T01:48:17.366Z,3.01
2017-12-03T01:48:57.920Z,2.89
2017-12-03T01:49:38.482Z,2.97
2017-12-03T01:50:19.057Z,2.93
2017-12-03T01:50:59.635Z,2.9
2017-12-03T01:51:40.204Z,2.97
2017-12-03T01:52:20.777Z,2.89
2017-12-03T01:53:01.342Z,2.83
2017-12-03T01:53:41.908Z,2.85
2017-12-03T01:54:22.487Z,2.89
2017-12-03T01:55:03.045Z,2.87
2017-12-03T01:55:43.620Z,2.86
2017-12-03T01:56:24.194Z,2.89
2017-12-03T01:57:04.758Z,2.86
2017-12-03T01:57:45.320Z,2.89
2017-12-03T01:58:25.881Z,2.86
2017-12-03T01:59:06.451Z,2.87
2017-12-03T01:59:47.035Z,2.87
2017-12-03T02:00:27.594Z,2.95
2017-12-03T02:01:08.150Z,2.87
2017-12-03T02:01:48.729Z,3
2017-12-03T02:02:29.279Z,2.89
2017-12-03T02:03:09.905Z,2.86
2017-12-03T02:03:50.463Z,2.87
2017-12-03T02:04:31.021Z,2.86
2017-12-03T02:05:11.589Z,2.95
2017-12-03T02:05:52.151Z,2.87
2017-12-03T02:06:32.725Z,2.87
2017-12-03T02:07:13.310Z,2.86
2017-12-03T02:07:53.876Z,2.86
2017-12-03T02:08:34.480Z,3
2017-12-03T02:09:15.054Z,2.89
2017-12-03T02:09:55.610Z,2.86
2017-12-03T02:10:36.179Z,2.92
2017-12-03T02:11:16.748Z,2.85
2017-12-03T02:11:57.317Z,2.85
2017-12-03T02:12:37.883Z,2.9
2017-12-03T02:13:18.449Z,2.87
2017-12-03T02:13:59.030Z,2.92
2017-12-03T02:14:39.609Z,2.9
2017-12-03T02:15:20.167Z,2.87
2017-12-03T02:16:00.725Z,2.9
2017-12-03T02:16:41.285Z,2.86
2017-12-03T02:17:21.866Z,2.93
2017-12-03T02:18:02.441Z,2.86
2017-12-03T02:18:43.016Z,2.85
2017-12-03T02:19:23.616Z,2.86
2017-12-03T02:20:04.180Z,2.83
2017-12-03T02:20:44.752Z,2.92
2017-12-03T02:21:25.321Z,2.9
2017-12-03T02:22:05.891Z,2.87
2017-12-03T02:22:46.455Z,2.87
2017-12-03T02:23:27.019Z,2.86
2017-12-03T02:24:07.603Z,2.82
2017-12-03T02:24:48.190Z,2.87
2017-12-03T02:25:28.759Z,2.75
2017-12-03T02:26:09.363Z,2.83
2017-12-03T02:26:49.924Z,2.89
2017-12-03T02:27:30.485Z,2.82
2017-12-03T02:28:11.054Z,2.8
2017-12-03T02:28:51.639Z,2.74
2017-12-03T02:29:32.233Z,2.8
2017-12-03T02:30:12.771Z,2.71
2017-12-03T02:30:53.357Z,2.74
2017-12-03T02:31:33.928Z,2.72
2017-12-03T02:32:14.502Z,2.72
2017-12-03T02:32:55.062Z,2.74
2017-12-03T02:33:35.658Z,2.74
2017-12-03T02:34:16.293Z,2.69
2017-12-03T02:34:56.820Z,2.68
2017-12-03T02:35:37.394Z,2.79
2017-12-03T02:36:17.951Z,2.61
2017-12-03T02:36:58.568Z,2.67
2017-12-03T02:37:39.168Z,2.62
2017-12-03T02:38:19.730Z,2.64
2017-12-03T02:39:00.296Z,2.61
2017-12-03T02:39:40.897Z,2.57
2017-12-03T02:40:21.457Z,2.56
2017-12-03T02:41:02.027Z,2.53
2017-12-03T02:41:42.586Z,2.5
2017-12-03T02:42:23.176Z,2.54
2017-12-03T02:43:03.749Z,2.49
2017-12-03T02:43:44.334Z,2.57
2017-12-03T02:44:24.906Z,2.57
2017-12-03T02:45:05.506Z,2.5
2017-12-03T02:45:46.076Z,2.57
2017-12-03T02:46:26.654Z,2.5
2017-12-03T02:47:07.217Z,2.47
2017-12-03T02:47:47.789Z,2.47
2017-12-03T02:48:28.375Z,2.5
2017-12-03T02:49:08.942Z,2.47
2017-12-03T02:49:49.503Z,2.44
2017-12-03T02:50:30.076Z,2.47
2017-12-03T02:51:10.664Z,2.46
2017-12-03T02:51:51.220Z,2.49
2017-12-03T02:52:31.820Z,2.46
2017-12-03T02:53:12.391Z,2.43
2017-12-03T02:53:52.976Z,2.49
2017-12-03T02:54:33.541Z,2.49
2017-12-03T02:55:14.121Z,2.51
2017-12-03T02:55:54.690Z,2.53
2017-12-03T02:56:35.267Z,2.53
2017-12-03T02:57:15.822Z,2.6
2017-12-03T02:57:56.393Z,2.57
2017-12-03T02:58:36.957Z,2.6
2017-12-03T02:59:17.546Z,2.61
2017-12-03T02:59:58.120Z,2.5
2017-12-03T03:00:38.678Z,2.44
2017-12-03T03:01:19.244Z,2.56
2017-12-03T03:01:59.830Z,2.53
2017-12-03T03:02:40.396Z,2.6
2017-12-03T03:03:20.959Z,2.57
2017-12-03T03:04:01.516Z,2.53
2017-12-03T03:04:42.085Z,2.54
2017-12-03T03:05:22.685Z,2.49
2017-12-03T03:06:03.243Z,2.46
2017-12-03T03:06:43.807Z,2.44
2017-12-03T03:07:24.388Z,2.46
2017-12-03T03:08:04.956Z,2.43
2017-12-03T03:08:45.566Z,2.42
2017-12-03T03:09:26.163Z,2.46
2017-12-03T03:10:06.752Z,2.44
2017-12-03T03:10:47.314Z,2.46
2017-12-03T03:11:27.899Z,2.49
2017-12-03T03:12:08.464Z,2.43
2017-12-03T03:12:49.044Z,2.62
2017-12-03T03:13:29.608Z,2.53
2017-12-03T03:14:10.166Z,2.53
2017-12-03T03:14:50.737Z,2.56
2017-12-03T03:15:31.312Z,2.57
2017-12-03T03:16:11.897Z,2.6
2017-12-03T03:16:52.458Z,2.56
2017-12-03T03:17:33.021Z,2.49
2017-12-03T03:18:13.626Z,2.5
2017-12-03T03:18:54.234Z,2.46
2017-12-03T03:19:34.827Z,2.46
2017-12-03T03:20:15.433Z,2.39
2017-12-03T03:20:55.987Z,2.36
2017-12-03T03:21:36.601Z,2.33
2017-12-03T03:22:17.148Z,2.28
2017-12-03T03:22:57.719Z,2.28
2017-12-03T03:23:38.292Z,2.24
2017-12-03T03:24:18.880Z,2.22
2017-12-03T03:24:59.454Z,2.22
2017-12-03T03:25:40.053Z,2.2
2017-12-03T03:26:20.640Z,2.28
2017-12-03T03:27:01.244Z,2.14
2017-12-03T03:27:41.812Z,2.14
2017-12-03T03:28:22.380Z,2.22
2017-12-03T03:29:02.944Z,2.14
2017-12-03T03:29:43.545Z,2.15
2017-12-03T03:30:24.107Z,2.15
2017-12-03T03:31:04.711Z,2.13
2017-12-03T03:31:45.286Z,2.14
2017-12-03T03:32:25.838Z,2.15
2017-12-03T03:33:06.418Z,2.14
2017-12-03T03:33:47.001Z,2.14
2017-12-03T03:34:27.569Z,2.14
2017-12-03T03:35:08.169Z,2.1
2017-12-03T03:35:48.748Z,2.14
2017-12-03T03:36:29.351Z,2.22
2017-12-03T03:37:09.921Z,2.1
2017-12-03T03:37:50.475Z,2.13
2017-12-03T03:38:31.048Z,2.14
2017-12-03T03:39:11.607Z,2.06
2017-12-03T03:39:52.190Z,2.13
2017-12-03T03:40:32.765Z,2.1
2017-12-03T03:41:13.317Z,2.08
2017-12-03T03:41:53.883Z,2.02
2017-12-03T03:42:34.441Z,2.1
2017-12-03T03:43:15.004Z,2.07
2017-12-03T03:43:55.564Z,1.97
2017-12-03T03:44:36.128Z,1.97
2017-12-03T03:45:16.694Z,1.92
2017-12-03T03:45:57.250Z,1.91
2017-12-03T03:46:37.849Z,1.91
2017-12-03T03:47:18.398Z,1.89
2017-12-03T03:47:58.959Z,1.8
2017-12-03T03:48:39.521Z,1.87
2017-12-03T03:49:20.090Z,1.77
2017-12-03T03:50:00.675Z,1.76
2017-12-03T03:50:41.243Z,1.81
2017-12-03T03:51:21.856Z,1.8
2017-12-03T03:52:02.457Z,1.76
2017-12-03T03:52:43.023Z,1.78
2017-12-03T03:53:23.576Z,1.84
2017-12-03T03:54:04.144Z,1.81
2017-12-03T03:54:44.708Z,1.78
2017-12-03T03:55:25.270Z,1.88
2017-12-03T03:56:05.865Z,1.92
2017-12-03T03:56:46.422Z,1.94
2017-12-03T03:57:26.986Z,1.92
2017-12-03T03:58:07.548Z,1.92
2017-12-03T03:58:48.102Z,1.99
2017-12-03T03:59:28.756Z,1.95
2017-12-03T04:00:09.311Z,1.94
2017-12-03T04:00:49.885Z,1.91
2017-12-03T04:01:30.456Z,1.94
2017-12-03T04:02:11.011Z,1.97
2017-12-03T04:02:51.582Z,1.97
2017-12-03T04:03:32.143Z,1.92
2017-12-03T04:04:12.710Z,1.97
2017-12-03T04:04:53.294Z,1.94
2017-12-03T04:05:33.884Z,1.97
2017-12-03T04:06:14.469Z,1.85
2017-12-03T04:06:55.039Z,1.87
2017-12-03T04:07:35.623Z,1.88
2017-12-03T04:08:16.195Z,1.91
2017-12-03T04:08:56.794Z,1.74
2017-12-03T04:09:37.374Z,1.81
2017-12-03T04:10:17.939Z,1.73
2017-12-03T04:10:58.499Z,1.73
2017-12-03T04:11:39.057Z,1.76
2017-12-03T04:12:19.631Z,1.68
2017-12-03T04:13:00.189Z,1.7
2017-12-03T04:13:40.759Z,1.74
2017-12-03T04:14:21.322Z,1.7
2017-12-03T04:15:01.883Z,1.71
2017-12-03T04:15:42.440Z,1.68
2017-12-03T04:16:23.020Z,1.62
2017-12-03T04:17:03.593Z,1.56
2017-12-03T04:17:44.156Z,1.59
2017-12-03T04:18:24.718Z,1.59
2017-12-03T04:19:05.290Z,1.62
2017-12-03T04:19:45.855Z,1.6
2017-12-03T04:20:26.434Z,1.62
2017-12-03T04:21:07.037Z,1.62
2017-12-03T04:21:47.599Z,1.59
2017-12-03T04:22:28.162Z,1.58
2017-12-03T04:23:08.728Z,1.68
2017-12-03T04:23:49.323Z,1.74
2017-12-03T04:24:29.893Z,1.68
2017-12-03T04:25:10.456Z,1.8
2017-12-03T04:25:51.011Z,1.74
2017-12-03T04:26:31.587Z,1.7
2017-12-03T04:27:12.211Z,1.8
2017-12-03T04:27:52.766Z,1.81
2017-12-03T04:28:33.340Z,1.71
2017-12-03T04:29:13.925Z,1.81
2017-12-03T04:29:54.495Z,1.78
2017-12-03T04:30:35.051Z,1.8
2017-12-03T04:31:15.634Z,1.81
2017-12-03T04:31:56.192Z,1.8
2017-12-03T04:32:36.778Z,1.74
2017-12-03T04:33:17.397Z,1.8
2017-12-03T04:33:57.982Z,1.8
2017-12-03T04:34:38.544Z,1.8
2017-12-03T04:35:19.112Z,1.76
2017-12-03T04:35:59.682Z,1.78
2017-12-03T04:36:40.264Z,1.73
2017-12-03T04:37:20.869Z,1.77
2017-12-03T04:38:01.433Z,1.73
2017-12-03T04:38:42.004Z,1.73
2017-12-03T04:39:22.588Z,1.73
2017-12-03T04:40:03.144Z,1.77
2017-12-03T04:40:43.718Z,1.8
2017-12-03T04:41:24.297Z,1.7
2017-12-03T04:42:04.867Z,1.74
2017-12-03T04:42:45.422Z,1.7
2017-12-03T04:43:25.979Z,1.77
2017-12-03T04:44:06.542Z,1.76
2017-12-03T04:44:47.125Z,1.71
2017-12-03T04:45:27.722Z,1.7
2017-12-03T04:46:08.283Z,1.71
2017-12-03T04:46:48.842Z,1.68
2017-12-03T04:47:29.426Z,1.67
2017-12-03T04:48:09.998Z,1.71
2017-12-03T04:48:50.561Z,1.76
2017-12-03T04:49:31.419Z,1.77
2017-12-03T04:50:12.007Z,1.76
2017-12-03T04:50:52.593Z,1.76
2017-12-03T04:51:33.162Z,1.7
2017-12-03T04:52:13.718Z,1.74
2017-12-03T04:52:54.318Z,1.81
2017-12-03T04:53:34.879Z,1.81
2017-12-03T04:54:15.446Z,1.73
2017-12-03T04:54:56.031Z,1.77
2017-12-03T04:55:36.619Z,1.8
2017-12-03T04:56:17.181Z,1.78
2017-12-03T04:56:57.749Z,1.8
2017-12-03T04:57:38.310Z,1.76
2017-12-03T04:58:18.878Z,1.73
2017-12-03T04:58:59.435Z,1.78
2017-12-03T04:59:40.004Z,1.74
2017-12-03T05:00:20.569Z,1.7
2017-12-03T05:01:01.157Z,1.71
2017-12-03T05:01:41.726Z,1.73
2017-12-03T05:02:22.297Z,1.68
2017-12-03T05:03:02.890Z,1.7
2017-12-03T05:03:43.476Z,1.78
2017-12-03T05:04:24.053Z,1.66
2017-12-03T05:05:04.625Z,1.74
2017-12-03T05:05:45.201Z,1.7
2017-12-03T05:06:25.764Z,1.7
2017-12-03T05:07:06.323Z,1.73
2017-12-03T05:07:46.887Z,1.7
2017-12-03T05:08:27.454Z,1.68
2017-12-03T05:09:08.010Z,1.7
2017-12-03T05:09:48.577Z,1.58
2017-12-03T05:10:29.152Z,1.66
2017-12-03T05:11:09.719Z,1.59
2017-12-03T05:11:50.285Z,1.62
2017-12-03T05:12:30.857Z,1.56
2017-12-03T05:13:11.404Z,1.63
2017-12-03T05:13:51.980Z,1.62
2017-12-03T05:14:32.537Z,1.62
2017-12-03T05:15:13.105Z,1.68
2017-12-03T05:15:53.671Z,1.66
2017-12-03T05:16:34.289Z,1.74
2017-12-03T05:17:14.802Z,1.71
2017-12-03T05:17:55.379Z,1.76
2017-12-03T05:18:35.994Z,1.7
2017-12-03T05:19:16.563Z,1.68
2017-12-03T05:19:57.141Z,1.7
2017-12-03T05:20:37.726Z,1.68
2017-12-03T05:21:18.292Z,1.63
2017-12-03T05:21:58.870Z,1.67
2017-12-03T05:22:39.441Z,1.66
2017-12-03T05:23:20.035Z,1.62
2017-12-03T05:24:00.632Z,1.58
2017-12-03T05:24:41.211Z,1.55
2017-12-03T05:25:21.829Z,1.6
2017-12-03T05:26:02.402Z,1.62
2017-12-03T05:26:42.992Z,1.67
2017-12-03T05:27:23.563Z,1.71
2017-12-03T05:28:04.159Z,1.73
2017-12-03T05:28:44.723Z,1.73
2017-12-03T05:29:25.308Z,1.76
2017-12-03T05:30:05.891Z,1.73
2017-12-03T05:30:46.453Z,1.77
2017-12-03T05:31:27.028Z,1.7
2017-12-03T05:32:07.586Z,1.73
2017-12-03T05:32:48.153Z,1.73
2017-12-03T05:33:28.717Z,1.8
2017-12-03T05:34:09.271Z,1.76
2017-12-03T05:34:49.836Z,1.84
2017-12-03T05:35:30.432Z,1.78
2017-12-03T05:36:10.992Z,1.85
2017-12-03T05:36:51.563Z,1.78
2017-12-03T05:37:32.153Z,1.77
2017-12-03T05:38:12.727Z,1.77
2017-12-03T05:38:53.288Z,1.78
2017-12-03T05:39:33.851Z,1.8
2017-12-03T05:40:14.415Z,1.84
2017-12-03T05:40:54.977Z,1.81
2017-12-03T05:41:35.548Z,1.76
2017-12-03T05:42:16.121Z,1.78
2017-12-03T05:42:56.723Z,1.78
2017-12-03T05:43:37.286Z,1.84
2017-12-03T05:44:17.854Z,1.94
2017-12-03T05:44:58.425Z,1.92
2017-12-03T05:45:38.994Z,1.95
2017-12-03T05:46:19.571Z,1.94
2017-12-03T05:47:00.139Z,1.92
2017-12-03T05:47:40.715Z,1.94
2017-12-03T05:48:21.294Z,1.92
2017-12-03T05:49:01.863Z,1.87
2017-12-03T05:49:42.430Z,1.88
2017-12-03T05:50:22.998Z,1.78
2017-12-03T05:51:03.562Z,1.85
2017-12-03T05:51:44.152Z,1.81
2017-12-03T05:52:24.716Z,1.78
2017-12-03T05:53:05.322Z,1.84
2017-12-03T05:53:45.905Z,1.84
2017-12-03T05:54:26.461Z,1.76
2017-12-03T05:55:07.033Z,1.87
2017-12-03T05:55:47.586Z,1.78
2017-12-03T05:56:28.154Z,1.81
2017-12-03T05:57:08.723Z,1.76
2017-12-03T05:57:49.335Z,1.81
2017-12-03T05:58:29.881Z,1.76
2017-12-03T05:59:10.465Z,1.78
2017-12-03T05:59:51.027Z,1.76
2017-12-03T06:00:31.582Z,1.8
2017-12-03T06:01:12.199Z,1.91
2017-12-03T06:01:52.701Z,1.8
2017-12-03T06:02:33.275Z,1.76
2017-12-03T06:03:13.836Z,1.77
2017-12-03T06:03:54.432Z,1.8
2017-12-03T06:04:34.993Z,1.78
2017-12-03T06:05:15.594Z,1.78
2017-12-03T06:05:56.147Z,1.78
2017-12-03T06:06:38.557Z,1.77
2017-12-03T06:07:25.339Z,1.78
2017-12-03T06:08:13.110Z,1.85
2017-12-03T06:08:56.597Z,1.81
2017-12-03T06:09:39.140Z,1.8
2017-12-03T06:10:19.696Z,1.88
2017-12-03T06:11:00.260Z,1.89
2017-12-03T06:11:40.829Z,1.94
2017-12-03T06:12:21.390Z,1.92
2017-12-03T06:13:02.020Z,2
2017-12-03T06:13:42.588Z,1.88
2017-12-03T06:14:23.189Z,1.97
2017-12-03T06:15:03.765Z,1.88
2017-12-03T06:15:44.325Z,1.8
2017-12-03T06:16:24.900Z,1.8
2017-12-03T06:17:05.453Z,1.78
2017-12-03T06:17:46.034Z,1.88
2017-12-03T06:18:26.654Z,1.89
2017-12-03T06:19:07.216Z,1.85
2017-12-03T06:19:48.505Z,1.76
2017-12-03T06:20:29.558Z,1.78
2017-12-03T06:21:11.275Z,1.84
2017-12-03T06:21:51.367Z,1.81
2017-12-03T06:22:31.997Z,1.8
2017-12-03T06:23:12.727Z,1.76
2017-12-03T06:23:53.475Z,1.87
2017-12-03T06:24:34.636Z,1.76
2017-12-03T06:25:15.379Z,1.78
2017-12-03T06:25:56.209Z,1.77
2017-12-03T06:26:37.142Z,1.8
2017-12-03T06:27:17.983Z,1.78
2017-12-03T06:27:58.732Z,1.77
2017-12-03T06:28:39.364Z,1.91
2017-12-03T06:29:19.933Z,1.88
2017-12-03T06:30:00.511Z,1.88
2017-12-03T06:30:41.070Z,1.89
2017-12-03T06:31:23.127Z,1.85
2017-12-03T06:32:04.189Z,1.8
2017-12-03T06:32:45.152Z,1.88
2017-12-03T06:33:25.740Z,1.91
2017-12-03T06:34:06.339Z,1.94
2017-12-03T06:34:46.963Z,1.91
2017-12-03T06:35:28.191Z,1.87
2017-12-03T06:36:09.122Z,1.85
2017-12-03T06:36:50.040Z,1.81
2017-12-03T06:37:31.089Z,1.91
2017-12-03T06:38:11.871Z,1.94
2017-12-03T06:38:52.465Z,1.91
2017-12-03T06:39:33.045Z,1.91
2017-12-03T06:40:13.613Z,1.87
2017-12-03T06:40:54.182Z,1.81
2017-12-03T06:41:34.811Z,1.95
2017-12-03T06:42:15.689Z,1.92
2017-12-03T06:42:56.610Z,1.91
2017-12-03T06:43:37.660Z,1.95
2017-12-03T06:44:18.289Z,1.95
2017-12-03T06:44:59.344Z,1.91
2017-12-03T06:45:40.142Z,1.88
2017-12-03T06:46:20.704Z,1.84
2017-12-03T06:47:01.636Z,1.76
2017-12-03T06:47:42.408Z,1.77
2017-12-03T06:48:23.328Z,1.74
2017-12-03T06:49:03.915Z,1.8
2017-12-03T06:49:44.884Z,1.74
2017-12-03T06:50:25.554Z,1.81
2017-12-03T06:51:06.288Z,1.76
2017-12-03T06:51:47.414Z,1.85
2017-12-03T06:52:28.244Z,1.76
2017-12-03T06:53:09.587Z,1.76
2017-12-03T06:53:50.567Z,1.74
2017-12-03T06:54:31.321Z,1.8
2017-12-03T06:55:11.916Z,1.74
2017-12-03T06:55:52.474Z,1.74
2017-12-03T06:56:33.425Z,1.77
2017-12-03T06:57:14.104Z,1.74
2017-12-03T06:57:54.970Z,1.68
2017-12-03T06:58:36.215Z,1.68
2017-12-03T06:59:16.863Z,1.66
2017-12-03T06:59:57.567Z,1.73
2017-12-03T07:00:38.190Z,1.68
2017-12-03T07:01:18.885Z,1.66
2017-12-03T07:01:59.645Z,1.74
2017-12-03T07:02:40.620Z,1.77
2017-12-03T07:03:21.577Z,1.74
2017-12-03T07:04:02.706Z,1.74
2017-12-03T07:04:43.831Z,1.76
2017-12-03T07:05:24.391Z,1.71
2017-12-03T07:06:05.367Z,1.77
2017-12-03T07:06:46.320Z,1.71
2017-12-03T07:07:26.914Z,1.73
2017-12-03T07:08:07.481Z,1.73
2017-12-03T07:08:48.130Z,1.7
2017-12-03T07:09:28.727Z,1.76
2017-12-03T07:10:09.278Z,1.76
2017-12-03T07:10:49.851Z,1.76
2017-12-03T07:11:30.446Z,1.68
2017-12-03T07:12:10.995Z,1.76
2017-12-03T07:12:51.582Z,1.7
2017-12-03T07:13:32.458Z,1.8
2017-12-03T07:14:13.365Z,1.78
2017-12-03T07:14:53.968Z,1.73
2017-12-03T07:15:34.532Z,1.81
2017-12-03T07:16:15.117Z,1.77
2017-12-03T07:16:55.769Z,1.78
2017-12-03T07:17:36.726Z,1.68
2017-12-03T07:18:17.423Z,1.78
2017-12-03T07:18:58.015Z,1.74
2017-12-03T07:19:38.847Z,1.71
2017-12-03T07:20:19.629Z,1.71
2017-12-03T07:21:00.203Z,1.71
2017-12-03T07:21:40.774Z,1.76
2017-12-03T07:22:21.331Z,1.78
2017-12-03T07:23:03.883Z,1.77
2017-12-03T07:23:44.449Z,1.74
2017-12-03T07:24:25.023Z,1.74
2017-12-03T07:25:05.577Z,1.71
2017-12-03T07:25:46.140Z,1.7
2017-12-03T07:26:26.702Z,1.71
2017-12-03T07:27:07.289Z,1.63
2017-12-03T07:27:47.879Z,1.66
2017-12-03T07:28:28.446Z,1.66
2017-12-03T07:29:09.010Z,1.71
2017-12-03T07:29:49.600Z,1.59
2017-12-03T07:30:30.174Z,1.66
2017-12-03T07:31:10.751Z,1.62
2017-12-03T07:31:51.317Z,1.58
2017-12-03T07:32:31.882Z,1.63
2017-12-03T07:33:12.455Z,1.58
2017-12-03T07:33:53.045Z,1.67
2017-12-03T07:34:33.633Z,1.58
2017-12-03T07:35:14.189Z,1.59
2017-12-03T07:35:54.754Z,1.52
2017-12-03T07:36:35.320Z,1.62
2017-12-03T07:37:15.882Z,1.59
2017-12-03T07:37:56.456Z,1.56
2017-12-03T07:38:37.029Z,1.59
2017-12-03T07:39:17.595Z,1.53
2017-12-03T07:39:58.158Z,1.5
2017-12-03T07:40:38.733Z,1.6
2017-12-03T07:41:19.285Z,1.63
2017-12-03T07:41:59.859Z,1.62
2017-12-03T07:42:40.427Z,1.63
2017-12-03T07:43:20.986Z,1.62
2017-12-03T07:44:01.554Z,1.53
2017-12-03T07:44:42.130Z,1.58
2017-12-03T07:45:22.701Z,1.53
2017-12-03T07:46:03.275Z,1.55
2017-12-03T07:46:43.844Z,1.53
2017-12-03T07:47:24.403Z,1.45
2017-12-03T07:48:04.969Z,1.55
2017-12-03T07:48:45.565Z,1.52
2017-12-03T07:49:26.137Z,1.49
2017-12-03T07:50:06.717Z,1.48
2017-12-03T07:50:47.342Z,1.4
2017-12-03T07:51:27.915Z,1.49
2017-12-03T07:52:08.502Z,1.4
2017-12-03T07:52:49.087Z,1.42
2017-12-03T07:53:29.745Z,1.48
2017-12-03T07:54:10.309Z,1.42
2017-12-03T07:54:50.918Z,1.41
2017-12-03T07:55:31.482Z,1.4
2017-12-03T07:56:12.478Z,1.42
2017-12-03T07:56:54.768Z,1.41
2017-12-03T07:57:35.601Z,1.41
2017-12-03T07:58:16.155Z,1.41
2017-12-03T07:58:56.938Z,1.38
2017-12-03T07:59:37.602Z,1.35
2017-12-03T08:00:18.180Z,1.3
2017-12-03T08:00:59.000Z,1.32
2017-12-03T08:01:39.597Z,1.37
2017-12-03T08:02:20.345Z,1.37
2017-12-03T08:03:01.223Z,1.34
2017-12-03T08:03:41.830Z,1.31
2017-12-03T08:04:22.406Z,1.32
2017-12-03T08:05:03.152Z,1.31
2017-12-03T08:05:43.716Z,1.32
2017-12-03T08:06:24.768Z,1.34
2017-12-03T08:07:05.606Z,1.32
2017-12-03T08:07:46.220Z,1.34
2017-12-03T08:08:26.776Z,1.31
2017-12-03T08:09:07.344Z,1.3
2017-12-03T08:09:47.911Z,1.31
2017-12-03T08:10:28.483Z,1.3
2017-12-03T08:11:09.051Z,1.2
2017-12-03T08:11:49.614Z,1.3
2017-12-03T08:12:30.168Z,1.22
2017-12-03T08:13:10.789Z,1.26
2017-12-03T08:13:51.360Z,1.58
2017-12-03T08:14:31.928Z,1.88
2017-12-03T08:15:12.521Z,2.15
2017-12-03T08:15:53.108Z,2.47
2017-12-03T08:16:33.680Z,2.79
2017-12-03T08:17:14.256Z,3.1
2017-12-03T08:17:55.770Z,3.19
2017-12-03T08:18:36.348Z,3.23
2017-12-03T08:19:16.929Z,3.14
2017-12-03T08:19:57.486Z,3.18
2017-12-03T08:20:38.073Z,3.08
2017-12-03T08:21:18.658Z,3.07
2017-12-03T08:21:59.243Z,2.98
2017-12-03T08:22:39.899Z,2.89
2017-12-03T08:23:20.485Z,2.75
2017-12-03T08:24:01.047Z,2.72
2017-12-03T08:24:41.643Z,2.62
2017-12-03T08:25:22.214Z,2.6
2017-12-03T08:26:02.771Z,2.47
2017-12-03T08:26:43.344Z,2.44
2017-12-03T08:27:23.900Z,2.43
2017-12-03T08:28:04.464Z,2.31
2017-12-03T08:28:45.030Z,2.36
2017-12-03T08:29:25.577Z,2.18
2017-12-03T08:30:06.138Z,2.22
2017-12-03T08:30:46.769Z,2.14
2017-12-03T08:31:27.333Z,2.15
2017-12-03T08:32:07.883Z,2.06
2017-12-03T08:32:48.912Z,1.97
2017-12-03T08:33:29.477Z,2
2017-12-03T08:34:10.050Z,1.99
2017-12-03T08:34:50.625Z,1.94
2017-12-03T08:35:31.214Z,2.04
2017-12-03T08:36:11.784Z,1.97
2017-12-03T08:36:52.359Z,2.14
2017-12-03T08:37:32.930Z,2.2
2017-12-03T08:38:13.512Z,2.18
2017-12-03T08:38:54.105Z,2.22
2017-12-03T08:39:34.680Z,2.33
2017-12-03T08:40:15.281Z,2.44
2017-12-03T08:40:55.860Z,2.53
2017-12-03T08:41:36.412Z,2.64
2017-12-03T08:42:17.001Z,2.69
2017-12-03T08:42:57.610Z,2.79
2017-12-03T08:43:38.175Z,2.86
2017-12-03T08:44:18.809Z,3.04
2017-12-03T08:44:59.383Z,3.04
2017-12-03T08:45:39.974Z,3.11
2017-12-03T08:46:20.549Z,3.08
2017-12-03T08:47:01.154Z,3.23
2017-12-03T08:47:41.740Z,3.29
2017-12-03T08:48:22.355Z,3.44
2017-12-03T08:49:02.932Z,3.58
2017-12-03T08:49:43.526Z,3.62
2017-12-03T08:50:24.092Z,3.69
2017-12-03T08:51:04.714Z,3.73
2017-12-03T08:51:45.287Z,3.77
2017-12-03T08:52:25.847Z,3.81
2017-12-03T08:53:06.455Z,3.87
2017-12-03T08:53:47.031Z,3.92
2017-12-03T08:54:27.633Z,3.96
2017-12-03T08:55:08.196Z,4.08
2017-12-03T08:55:48.770Z,4.06
2017-12-03T08:56:29.339Z,4.19
2017-12-03T08:57:09.903Z,4.24
2017-12-03T08:57:50.486Z,4.35
2017-12-03T08:58:31.049Z,4.48
2017-12-03T08:59:11.641Z,4.53
2017-12-03T08:59:52.216Z,4.71
2017-12-03T09:00:32.783Z,4.75
2017-12-03T09:01:13.383Z,4.73
2017-12-03T09:01:53.977Z,4.75
2017-12-03T09:02:34.544Z,4.93
2017-12-03T09:03:15.115Z,5.02